Corpus Christi, TX

12:18 AM CDT on June 30, 2015 (GMT -0500)
Texas State Aquarium | | Change Station
CLOSE
Current Station
Personal Weather Station
Location: Corpus Christi, TX
Elevation: 36 ft
Nearby Weather Stations

Elev 36 ft 27.81 °N, 97.39 °W | Updated 7 seconds ago

Partly Cloudy
Partly Cloudy
84.3 °F
Feels Like 102 °F
N
11.0
Wind Variable Wind from SSE
Gusts 11.0 mph

Today
High -- | Low -- °F
--% Chance of Precip.
Yesterday
High -- | Low -- °F
Precip. -- in
6:36 AM 8:29 PM
Waxing Gibbous, 96% visible
Pressure 30.01 in
Visibility 10.0 miles
Clouds Few 1800 ft
Mostly Cloudy 17000 ft
Overcast 25000 ft
Heat Index 102 °F
Dew Point 83 °F
Humidity 96%
Rainfall 0.00 in
Snow Depth Not available.
UV 1.0 out of 12
Pollen 4.10 out of 12
Air Quality Not available.
Flu Activity Local Activity
METAR KCRP 300451Z 14007KT 10SM FEW018 BKN170 OVC250 27/25 A3002 RMK AO2 SLP163 OCNL LTGIC DSNT SE CB DSNT SE T02720250

More Conditions Fewer Conditions

Pressure 30.01 in
Visibility 10.0 miles
Clouds Few 1800 ft
Mostly Cloudy 17000 ft
Overcast 25000 ft
Heat Index 102 °F
Dew Point 83 °F
Humidity 96%
Rainfall 0.00 in
Snow Depth Not available.
UV 1.0 out of 12
Pollen 4.10 out of 12
Air Quality Not available.
Flu Activity Local Activity
METAR KCRP 300451Z 14007KT 10SM FEW018 BKN170 OVC250 27/25 A3002 RMK AO2 SLP163 OCNL LTGIC DSNT SE CB DSNT SE T02720250

More Conditions Fewer Conditions

10-Day Weather Forecast

×

Almanac

Astronomy

Jun. 30, 2015 Rise Set
Actual Time
Civil Twilight
Nautical Twilight
Astronomical Twilight
Moon
Length of Visible Light
Length of Day
Tomorrow will be .
, % of the Moon is Illuminated

Today's Extremes

State Highs State Lows

Community

WunderPhotos

Upload Photos

1,833,969 photos uploaded!

WunderBlogs® & News

Nearby

Air Quality

  Air Quality AQ Index Pollutant
Not available.

Snow Depth

Station Depth Elevation

Earthquake Activity

City Distance Mag. Time & Date
Minimum magnitude displayed is 2.5.

Coastal Water Temperatures

Place Temperature

Stations

Nearby Weather Stations

Station Location Temp. Windchill Dew Point Humidity Wind Precip. Elev Updated Type